createdAt,value
2023-03-13T00:01:17.956Z,20.33
2023-03-13T00:03:46.116Z,16.75
2023-03-13T00:06:14.153Z,19.35
2023-03-13T00:08:42.068Z,19.75
2023-03-13T00:11:12.009Z,23.33
2023-03-13T00:13:40.033Z,16.20
2023-03-13T00:16:11.511Z,13.68
2023-03-13T00:18:40.106Z,16.40
2023-03-13T00:21:09.475Z,16.27
2023-03-13T00:23:39.480Z,14.93
2023-03-13T00:26:09.176Z,25.17
2023-03-13T00:28:39.130Z,18.73
2023-03-13T00:31:10.492Z,24.85
2023-03-13T00:33:39.958Z,19.02
2023-03-13T00:38:39.998Z,19.60
2023-03-13T00:41:11.971Z,18.52
2023-03-13T00:43:41.229Z,21.38
2023-03-13T00:46:10.856Z,16.55
2023-03-13T00:48:39.545Z,21.95
2023-03-13T00:51:08.721Z,29.60
2023-03-13T00:53:37.338Z,28.48
2023-03-13T00:56:08.433Z,18.77
2023-03-13T00:58:38.742Z,25.80
2023-03-13T01:01:13.047Z,14.93
2023-03-13T01:03:42.824Z,19.05
2023-03-13T01:06:13.754Z,22.10
2023-03-13T01:08:41.998Z,16.75
2023-03-13T01:11:11.947Z,17.83
2023-03-13T01:13:40.451Z,19.73
2023-03-13T01:16:10.123Z,15.70
2023-03-13T01:18:41.338Z,22.23
2023-03-13T01:21:11.378Z,10.90
2023-03-13T01:23:39.448Z,16.45
2023-03-13T01:26:09.357Z,18.02
2023-03-13T01:28:37.951Z,11.02
2023-03-13T01:31:13.125Z,16.88
2023-03-13T01:33:42.959Z,20.75
2023-03-13T01:36:11.427Z,14.63
2023-03-13T01:38:40.471Z,16.90
2023-03-13T01:41:09.665Z,19.50
2023-03-13T01:43:38.583Z,18.05
2023-03-13T01:46:14.514Z,18.17
2023-03-13T01:48:53.836Z,16.38
2023-03-13T01:51:25.577Z,17.98
2023-03-13T01:54:01.416Z,18.42
2023-03-13T01:56:35.605Z,18.17
2023-03-13T01:59:05.709Z,14.15
2023-03-13T02:01:37.034Z,19.17
2023-03-13T02:04:08.037Z,12.18
2023-03-13T02:06:40.599Z,20.48
2023-03-13T02:09:13.820Z,20.52
2023-03-13T02:11:49.738Z,17.10
2023-03-13T02:14:22.247Z,21.70
2023-03-13T02:16:52.206Z,12.98
2023-03-13T02:19:30.024Z,18.23
2023-03-13T02:22:07.939Z,11.15
2023-03-13T02:24:42.432Z,16.80
2023-03-13T02:27:11.872Z,23.67
2023-03-13T02:29:42.826Z,22.15
2023-03-13T02:32:11.326Z,19.92
2023-03-13T02:34:42.026Z,20.48
2023-03-13T02:37:13.004Z,20.30
2023-03-13T02:39:46.809Z,19.85
2023-03-13T02:42:20.080Z,19.42
2023-03-13T02:44:48.850Z,20.30
2023-03-13T02:47:19.755Z,20.35
2023-03-13T02:49:47.580Z,14.07
2023-03-13T02:52:20.764Z,26.35
2023-03-13T02:54:53.622Z,17.23
2023-03-13T02:57:24.162Z,14.75
2023-03-13T02:59:52.012Z,22.42
2023-03-13T03:02:20.057Z,18.83
2023-03-13T03:04:47.954Z,17.92
2023-03-13T03:07:15.892Z,15.38
2023-03-13T03:09:44.195Z,19.45
2023-03-13T03:12:18.227Z,25.10
2023-03-13T03:14:48.154Z,17.88
2023-03-13T03:17:16.929Z,16.13
2023-03-13T03:19:44.778Z,32.65
2023-03-13T03:22:12.795Z,18.90
2023-03-13T03:24:40.738Z,23.75
2023-03-13T03:27:08.630Z,9.63
2023-03-13T03:29:47.163Z,16.75
2023-03-13T03:32:15.064Z,19.92
2023-03-13T03:34:42.875Z,20.15
2023-03-13T03:37:10.694Z,20.73
2023-03-13T03:39:40.372Z,16.98
2023-03-13T03:42:09.645Z,15.50
2023-03-13T03:44:39.511Z,20.33
2023-03-13T03:47:09.009Z,16.40
2023-03-13T03:49:42.613Z,19.58
2023-03-13T03:52:13.355Z,12.82
2023-03-13T03:54:43.551Z,14.25
2023-03-13T03:57:11.432Z,20.15
2023-03-13T03:59:40.848Z,16.05
2023-03-13T04:02:11.506Z,22.20
2023-03-13T04:04:41.382Z,25.58
2023-03-13T04:07:12.629Z,24.77
2023-03-13T04:09:41.441Z,16.13
2023-03-13T04:12:12.535Z,20.30
2023-03-13T04:14:44.165Z,18.60
2023-03-13T04:17:15.886Z,17.92
2023-03-13T04:19:45.149Z,17.50
2023-03-13T04:22:13.105Z,13.63
2023-03-13T04:24:47.040Z,19.92
2023-03-13T04:27:15.097Z,14.70
2023-03-13T04:29:44.575Z,22.73
2023-03-13T04:32:43.480Z,20.05
2023-03-13T04:35:20.507Z,18.65
2023-03-13T04:38:07.405Z,16.13
2023-03-13T04:40:57.861Z,16.52
2023-03-13T04:43:37.570Z,14.65
2023-03-13T04:46:20.629Z,18.02
2023-03-13T04:49:08.986Z,22.23
2023-03-13T04:51:52.594Z,25.13
2023-03-13T04:54:30.031Z,16.23
2023-03-13T04:57:12.115Z,20.52
2023-03-13T04:59:51.984Z,16.67
2023-03-13T05:02:38.242Z,17.40
2023-03-13T05:05:30.909Z,11.25
2023-03-13T05:08:17.604Z,13.82
2023-03-13T05:11:12.128Z,16.33
2023-03-13T05:13:45.772Z,17.45
2023-03-13T05:16:22.689Z,17.05
2023-03-13T05:19:09.546Z,14.48
2023-03-13T05:21:59.038Z,16.75
2023-03-13T05:24:45.955Z,12.60
2023-03-13T05:27:40.164Z,16.33
2023-03-13T05:30:30.943Z,15.65
2023-03-13T05:33:25.784Z,7.28
2023-03-13T05:36:12.348Z,7.65
2023-03-13T05:39:05.102Z,10.43
2023-03-13T05:41:48.566Z,4.80
2023-03-13T05:44:24.237Z,7.40
2023-03-13T05:47:02.408Z,5.68
2023-03-13T05:49:53.796Z,6.68
2023-03-13T05:52:30.866Z,9.20
2023-03-13T05:55:23.658Z,9.98
2023-03-13T05:58:03.466Z,7.35
2023-03-13T06:00:46.190Z,13.57
2023-03-13T06:03:34.090Z,9.65
2023-03-13T06:06:02.773Z,10.38
2023-03-13T06:08:36.055Z,9.40
2023-03-13T06:11:05.445Z,9.55
2023-03-13T06:13:34.468Z,9.23
2023-03-13T06:16:10.939Z,11.57
2023-03-13T06:18:42.609Z,11.85
2023-03-13T06:21:10.614Z,5.07
2023-03-13T06:23:38.558Z,12.93
2023-03-13T06:26:07.813Z,10.43
2023-03-13T06:28:35.705Z,7.40
2023-03-13T06:31:05.318Z,11.93
2023-03-13T06:33:33.657Z,7.82
2023-03-13T06:36:02.773Z,7.43
2023-03-13T06:38:31.170Z,8.48
2023-03-13T06:40:59.159Z,11.27
2023-03-13T06:43:28.829Z,4.15
2023-03-13T06:45:56.880Z,6.63
2023-03-13T06:48:24.677Z,6.28
2023-03-13T06:50:52.665Z,6.32
2023-03-13T06:53:21.760Z,8.65
2023-03-13T06:55:49.847Z,7.72
2023-03-13T06:58:31.002Z,5.35
2023-03-13T07:01:01.346Z,5.65
2023-03-13T07:03:29.438Z,6.47
2023-03-13T07:05:58.064Z,6.07
2023-03-13T07:08:26.566Z,3.22
2023-03-13T07:10:55.462Z,3.97
2023-03-13T07:13:23.472Z,6.82
2023-03-13T07:15:51.496Z,5.55
2023-03-13T07:18:21.211Z,4.45
2023-03-13T07:20:55.208Z,5.13
2023-03-13T07:23:23.538Z,7.55
2023-03-13T07:25:55.861Z,4.28
2023-03-13T07:28:24.142Z,6.40
2023-03-13T07:30:52.109Z,3.42
2023-03-13T07:33:21.300Z,3.88
2023-03-13T07:35:50.184Z,5.88
2023-03-13T07:38:18.659Z,5.15
2023-03-13T07:40:50.503Z,4.68
2023-03-13T07:43:18.824Z,4.70
2023-03-13T07:45:54.440Z,4.72
2023-03-13T07:48:24.872Z,5.20
2023-03-13T07:50:53.012Z,4.97
2023-03-13T07:53:22.336Z,3.45
2023-03-13T07:55:55.122Z,8.82
2023-03-13T07:58:23.505Z,4.68
2023-03-13T08:00:51.456Z,6.15
2023-03-13T08:03:19.428Z,5.40
2023-03-13T08:05:49.250Z,5.05
2023-03-13T08:08:17.157Z,6.10
2023-03-13T08:10:45.160Z,2.60
2023-03-13T08:13:12.970Z,5.53
2023-03-13T08:15:40.839Z,4.53
2023-03-13T08:18:08.793Z,5.88
2023-03-13T08:20:36.585Z,6.18
2023-03-13T08:23:05.859Z,2.45
2023-03-13T08:25:34.237Z,3.42
2023-03-13T08:28:02.682Z,9.65
2023-03-13T08:30:30.487Z,3.90
2023-03-13T08:32:58.620Z,3.67
2023-03-13T08:35:26.548Z,5.55
2023-03-13T08:37:56.594Z,6.43
2023-03-13T08:40:25.824Z,3.65
2023-03-13T08:42:55.414Z,4.38
2023-03-13T08:45:23.310Z,2.72
2023-03-13T08:47:54.099Z,5.32
2023-03-13T08:50:21.972Z,3.08
2023-03-13T08:52:49.795Z,2.53
2023-03-13T08:55:17.885Z,5.35
2023-03-13T08:57:47.072Z,2.40
2023-03-13T09:00:18.884Z,5.53
2023-03-13T09:02:46.799Z,4.93
2023-03-13T09:05:15.014Z,5.63
2023-03-13T09:07:42.811Z,5.22
2023-03-13T09:10:11.730Z,4.32
2023-03-13T09:12:39.664Z,5.22
2023-03-13T09:15:10.528Z,11.90
2023-03-13T09:17:38.507Z,6.47
2023-03-13T09:20:07.789Z,4.05
2023-03-13T09:22:35.601Z,2.47
2023-03-13T09:25:03.508Z,4.97
2023-03-13T09:27:31.458Z,3.15
2023-03-13T09:29:59.475Z,2.50
2023-03-13T09:32:28.798Z,3.78
2023-03-13T09:34:56.628Z,4.90
2023-03-13T09:37:24.557Z,5.05
2023-03-13T09:39:53.088Z,2.55
2023-03-13T09:42:24.798Z,2.75
2023-03-13T09:44:58.225Z,2.63
2023-03-13T09:47:35.214Z,1.63
2023-03-13T09:50:08.360Z,3.05
2023-03-13T09:52:40.912Z,3.88
2023-03-13T09:55:16.566Z,1.35
2023-03-13T09:57:50.357Z,1.50
2023-03-13T10:00:23.536Z,5.00
2023-03-13T10:02:57.957Z,1.88
2023-03-13T10:05:28.957Z,3.92
2023-03-13T10:07:59.541Z,1.88
2023-03-13T10:10:40.380Z,2.70
2023-03-13T10:13:17.336Z,3.10
2023-03-13T10:15:51.391Z,5.32
2023-03-13T10:18:22.910Z,2.22
2023-03-13T10:20:53.373Z,3.08
2023-03-13T10:23:28.441Z,3.78
2023-03-13T10:25:56.387Z,2.35
2023-03-13T10:28:24.400Z,3.28
2023-03-13T10:30:59.061Z,2.08
2023-03-13T10:33:30.663Z,4.55
2023-03-13T10:36:08.338Z,2.00
2023-03-13T10:38:47.518Z,2.55
2023-03-13T10:41:31.109Z,4.57
2023-03-13T10:44:02.167Z,3.60
2023-03-13T10:46:32.315Z,2.22
2023-03-13T10:49:05.411Z,3.70
2023-03-13T10:51:38.440Z,3.08
2023-03-13T10:54:16.576Z,4.22
2023-03-13T10:56:44.707Z,2.55
2023-03-13T10:59:23.588Z,5.82
2023-03-13T11:01:52.310Z,3.70
2023-03-13T11:04:30.475Z,3.15
2023-03-13T11:07:04.378Z,3.15
2023-03-13T11:09:33.300Z,4.50
2023-03-13T11:12:06.291Z,3.10
2023-03-13T11:14:34.924Z,3.05
2023-03-13T11:17:10.072Z,3.22
2023-03-13T11:19:53.598Z,7.25
2023-03-13T11:22:31.524Z,2.97
2023-03-13T11:25:11.269Z,1.55
2023-03-13T11:27:47.428Z,7.22
2023-03-13T11:30:34.016Z,2.38
2023-03-13T11:33:05.611Z,3.65
2023-03-13T11:35:46.479Z,2.75
2023-03-13T11:38:22.441Z,3.90
2023-03-13T11:41:03.109Z,4.97
2023-03-13T11:43:51.649Z,1.83
2023-03-13T11:46:44.233Z,2.30
2023-03-13T11:49:44.809Z,4.43
2023-03-13T11:52:30.249Z,2.33
2023-03-13T11:55:32.617Z,4.88
2023-03-13T11:58:17.648Z,3.30
2023-03-13T12:00:51.694Z,8.52
2023-03-13T12:03:24.994Z,1.98
2023-03-13T12:05:55.381Z,2.38
2023-03-13T12:08:29.712Z,2.75
2023-03-13T12:11:07.833Z,1.77
2023-03-13T12:13:41.151Z,9.27
2023-03-13T12:16:14.326Z,2.75
2023-03-13T12:18:43.632Z,2.58
2023-03-13T12:21:19.258Z,4.60
2023-03-13T12:23:54.647Z,2.60
2023-03-13T12:26:28.058Z,4.32
2023-03-13T12:29:07.391Z,2.20
2023-03-13T12:31:40.383Z,1.80
2023-03-13T12:34:16.034Z,1.58
2023-03-13T12:36:50.416Z,3.38
2023-03-13T12:39:31.276Z,6.47
2023-03-13T12:42:15.060Z,6.35
2023-03-13T12:44:43.588Z,8.00
2023-03-13T12:47:18.008Z,4.90
2023-03-13T12:50:18.627Z,12.38
2023-03-13T12:53:14.731Z,2.28
2023-03-13T12:56:11.542Z,7.13
2023-03-13T12:58:45.281Z,3.83
2023-03-13T13:01:20.901Z,3.67
2023-03-13T13:03:54.926Z,1.30
2023-03-13T13:06:23.581Z,1.65
2023-03-13T13:09:07.795Z,7.07
2023-03-13T13:11:59.160Z,1.58
2023-03-13T13:15:03.967Z,4.30
2023-03-13T13:17:46.855Z,4.50
2023-03-13T13:20:46.283Z,1.80
2023-03-13T13:23:39.379Z,1.35
2023-03-13T13:26:46.722Z,1.27
2023-03-13T13:29:53.141Z,2.97
2023-03-13T13:32:31.317Z,1.75
2023-03-13T13:35:03.494Z,2.95
2023-03-13T13:37:31.409Z,1.85
2023-03-13T13:40:22.844Z,2.72
2023-03-13T13:42:53.166Z,0.65
2023-03-13T13:45:30.122Z,4.18
2023-03-13T13:48:25.054Z,2.00
2023-03-13T13:51:23.834Z,0.85
2023-03-13T13:53:55.821Z,1.42
2023-03-13T13:56:53.188Z,0.63
2023-03-13T13:59:43.724Z,6.18
2023-03-13T14:02:23.688Z,1.50
2023-03-13T14:05:10.788Z,1.67
2023-03-13T14:07:48.779Z,1.88
2023-03-13T14:10:30.660Z,2.67
2023-03-13T14:13:00.001Z,1.10
2023-03-13T14:15:29.166Z,1.73
2023-03-13T14:18:00.383Z,2.22
2023-03-13T14:20:32.821Z,0.82
2023-03-13T14:25:42.689Z,0.80
2023-03-13T14:28:18.917Z,1.05
2023-03-13T14:30:48.516Z,1.70
2023-03-13T14:33:16.544Z,1.73
2023-03-13T14:35:46.557Z,1.88
2023-03-13T14:38:20.197Z,1.90
2023-03-13T14:40:48.807Z,2.40
2023-03-13T14:43:29.219Z,1.75
2023-03-13T14:45:57.639Z,1.75
2023-03-13T14:48:31.624Z,4.05
2023-03-13T14:51:15.704Z,1.98
2023-03-13T14:53:55.505Z,1.35
2023-03-13T14:56:33.085Z,1.45
2023-03-13T14:59:08.997Z,4.50
2023-03-13T15:01:37.211Z,2.13
2023-03-13T15:04:05.265Z,1.67
2023-03-13T15:06:34.493Z,1.15
2023-03-13T15:09:16.376Z,1.85
2023-03-13T15:11:54.847Z,2.03
2023-03-13T15:14:42.891Z,1.50
2023-03-13T15:17:15.727Z,3.47
2023-03-13T15:19:43.801Z,3.35
2023-03-13T15:22:17.445Z,2.20
2023-03-13T15:24:59.745Z,1.20
2023-03-13T15:27:33.093Z,1.25
2023-03-13T15:30:00.964Z,5.82
2023-03-13T15:32:31.106Z,1.92
2023-03-13T15:35:01.729Z,8.02
2023-03-13T15:37:31.765Z,1.73
2023-03-13T15:39:59.682Z,4.00
2023-03-13T15:42:27.546Z,2.30
2023-03-13T15:44:55.379Z,2.08
2023-03-13T15:47:23.609Z,3.08
2023-03-13T15:49:51.488Z,6.30
2023-03-13T15:52:22.776Z,3.20
2023-03-13T15:54:52.723Z,7.15
2023-03-13T15:57:23.930Z,2.15
2023-03-13T15:59:52.734Z,5.25
2023-03-13T16:02:22.375Z,2.97
2023-03-13T16:04:50.584Z,2.50
2023-03-13T16:07:20.956Z,4.38
2023-03-13T16:09:49.476Z,6.20
2023-03-13T16:12:18.845Z,1.70
2023-03-13T16:14:46.617Z,5.22
2023-03-13T16:17:16.399Z,2.13
2023-03-13T16:19:44.706Z,2.30
2023-03-13T16:22:12.799Z,4.03
2023-03-13T16:24:40.833Z,3.47
2023-03-13T16:27:15.004Z,4.22
2023-03-13T16:29:44.730Z,2.92
2023-03-13T16:32:14.013Z,5.00
2023-03-13T16:34:42.196Z,1.60
2023-03-13T16:37:14.349Z,1.85
2023-03-13T16:39:42.426Z,4.15
2023-03-13T16:42:10.754Z,3.10
2023-03-13T16:44:39.175Z,2.33
2023-03-13T16:47:18.508Z,1.88
2023-03-13T16:49:47.674Z,2.55
2023-03-13T16:52:16.368Z,3.20
2023-03-13T16:54:44.881Z,3.53
2023-03-13T16:57:14.282Z,3.92
2023-03-13T16:59:42.242Z,8.63
2023-03-13T17:02:16.898Z,3.15
2023-03-13T17:04:45.553Z,4.95
2023-03-13T17:07:19.226Z,2.55
2023-03-13T17:09:47.789Z,4.43
2023-03-13T17:12:15.809Z,3.47
2023-03-13T17:14:43.729Z,2.65
2023-03-13T17:17:16.328Z,2.97
2023-03-13T17:22:13.334Z,3.55
2023-03-13T17:24:42.027Z,3.08
2023-03-13T17:27:13.340Z,7.15
2023-03-13T17:29:41.822Z,2.17
2023-03-13T17:32:11.376Z,1.67
2023-03-13T17:34:41.189Z,2.40
2023-03-13T17:37:15.489Z,2.50
2023-03-13T17:39:44.506Z,2.30
2023-03-13T17:42:12.646Z,1.85
2023-03-13T17:44:41.176Z,1.85
2023-03-13T17:47:14.632Z,3.28
2023-03-13T17:49:44.719Z,2.42
2023-03-13T17:52:16.771Z,2.38
2023-03-13T17:54:45.546Z,3.85
2023-03-13T17:57:18.451Z,3.03
2023-03-13T17:59:47.258Z,3.03
2023-03-13T18:02:17.499Z,3.47
2023-03-13T18:04:48.889Z,3.65
2023-03-13T18:07:22.244Z,5.55
2023-03-13T18:09:50.138Z,1.90
2023-03-13T18:12:17.957Z,2.95
2023-03-13T18:14:45.851Z,2.75
2023-03-13T18:17:18.927Z,4.78
2023-03-13T18:19:49.533Z,3.30
2023-03-13T18:22:21.516Z,2.95
2023-03-13T18:24:50.274Z,1.80
2023-03-13T18:27:20.508Z,1.92
2023-03-13T18:29:49.983Z,4.43
2023-03-13T18:32:19.672Z,2.35
2023-03-13T18:34:48.840Z,1.70
2023-03-13T18:37:28.499Z,4.10
2023-03-13T18:39:56.707Z,2.65
2023-03-13T18:42:25.943Z,7.57
2023-03-13T18:44:54.222Z,1.60
2023-03-13T18:47:23.538Z,2.70
2023-03-13T18:49:52.901Z,2.78
2023-03-13T18:52:20.778Z,10.32
2023-03-13T18:54:48.581Z,32.95
2023-03-13T18:57:18.987Z,2.83
2023-03-13T18:59:46.988Z,3.55
2023-03-13T19:02:16.060Z,4.20
2023-03-13T19:04:44.632Z,3.08
2023-03-13T19:07:21.571Z,4.43
2023-03-13T19:09:49.477Z,15.95
2023-03-13T19:12:17.312Z,5.22
2023-03-13T19:14:45.233Z,5.43
2023-03-13T19:17:24.007Z,6.32
2023-03-13T19:19:57.260Z,3.90
2023-03-13T19:22:26.914Z,2.70
2023-03-13T19:24:55.642Z,2.17
2023-03-13T19:27:23.590Z,1.85
2023-03-13T19:29:51.569Z,7.45
2023-03-13T19:32:20.124Z,1.95
2023-03-13T19:34:47.976Z,5.15
2023-03-13T19:37:18.935Z,3.67
2023-03-13T19:39:49.181Z,1.25
2023-03-13T19:42:17.061Z,2.45
2023-03-13T19:44:45.685Z,2.60
2023-03-13T19:47:15.782Z,2.35
2023-03-13T19:49:45.327Z,1.50
2023-03-13T19:52:13.263Z,3.90
2023-03-13T19:54:41.040Z,4.32
2023-03-13T19:57:11.792Z,2.72
2023-03-13T19:59:40.066Z,3.13
2023-03-13T20:02:09.167Z,4.28
2023-03-13T20:04:37.149Z,2.03
2023-03-13T20:07:04.985Z,3.08
2023-03-13T20:09:35.383Z,2.55
2023-03-13T20:12:03.424Z,3.33
2023-03-13T20:14:32.729Z,3.50
2023-03-13T20:17:00.529Z,1.45
2023-03-13T20:19:29.635Z,2.88
2023-03-13T20:22:03.538Z,3.33
2023-03-13T20:24:33.548Z,4.35
2023-03-13T20:27:01.608Z,1.98
2023-03-13T20:29:29.534Z,4.38
2023-03-13T20:32:00.238Z,2.95
2023-03-13T20:34:28.902Z,2.00
2023-03-13T20:36:57.170Z,5.03
2023-03-13T20:39:25.637Z,3.28
2023-03-13T20:41:54.334Z,4.63
2023-03-13T20:44:22.206Z,4.53
2023-03-13T20:46:50.049Z,3.40
2023-03-13T20:49:19.299Z,1.88
2023-03-13T20:51:47.444Z,0.82
2023-03-13T20:54:15.322Z,1.35
2023-03-13T20:56:43.196Z,1.20
2023-03-13T20:59:11.426Z,2.28
2023-03-13T21:01:39.641Z,1.88
2023-03-13T21:04:07.607Z,3.30
2023-03-13T21:06:36.750Z,1.33
2023-03-13T21:09:05.402Z,2.10
2023-03-13T21:11:34.099Z,0.95
2023-03-13T21:14:02.094Z,1.67
2023-03-13T21:16:29.940Z,1.67
2023-03-13T21:18:57.838Z,2.70
2023-03-13T21:21:25.724Z,4.45
2023-03-13T21:23:54.977Z,2.30
2023-03-13T21:26:22.895Z,4.30
2023-03-13T21:28:52.764Z,1.83
2023-03-13T21:31:20.755Z,3.08
2023-03-13T21:33:49.593Z,2.35
2023-03-13T21:36:20.665Z,3.25
2023-03-13T21:38:48.931Z,1.45
2023-03-13T21:41:20.381Z,1.98
2023-03-13T21:43:48.662Z,1.98
2023-03-13T21:46:19.908Z,3.97
2023-03-13T21:48:48.007Z,3.03
2023-03-13T21:51:16.567Z,1.52
2023-03-13T21:53:45.095Z,3.33
2023-03-13T21:56:15.395Z,2.92
2023-03-13T21:58:46.098Z,2.20
2023-03-13T22:01:15.256Z,2.55
2023-03-13T22:03:43.286Z,3.63
2023-03-13T22:06:14.941Z,1.98
2023-03-13T22:08:43.032Z,2.53
2023-03-13T22:11:11.614Z,3.47
2023-03-13T22:13:39.834Z,3.33
2023-03-13T22:16:11.482Z,2.10
2023-03-13T22:18:40.649Z,7.03
2023-03-13T22:21:08.568Z,3.40
2023-03-13T22:23:36.452Z,1.70
2023-03-13T22:26:04.830Z,2.60
2023-03-13T22:28:32.593Z,3.92
2023-03-13T22:31:01.506Z,2.22
2023-03-13T22:33:30.927Z,3.42
2023-03-13T22:35:59.262Z,1.60
2023-03-13T22:38:27.259Z,4.07
2023-03-13T22:40:59.078Z,6.40
2023-03-13T22:43:27.655Z,2.57
2023-03-13T22:45:55.765Z,2.50
2023-03-13T22:48:23.837Z,2.85
2023-03-13T22:51:01.785Z,2.25
2023-03-13T22:53:29.908Z,1.75
2023-03-13T22:55:57.891Z,3.10
2023-03-13T22:58:26.056Z,3.42
2023-03-13T23:00:54.741Z,1.45
2023-03-13T23:06:36.965Z,3.75
2023-03-13T23:09:05.372Z,2.50
2023-03-13T23:11:33.904Z,1.42
2023-03-13T23:14:01.790Z,5.43
2023-03-13T23:16:29.997Z,3.38
2023-03-13T23:18:57.871Z,2.20
2023-03-13T23:21:25.774Z,2.17
2023-03-13T23:23:56.018Z,2.35
2023-03-13T23:26:24.080Z,2.55
2023-03-13T23:28:51.971Z,3.72
2023-03-13T23:31:22.141Z,6.22
2023-03-13T23:33:50.257Z,3.33
2023-03-13T23:36:20.056Z,1.63
2023-03-13T23:38:50.684Z,1.00
2023-03-13T23:41:21.869Z,2.25
2023-03-13T23:43:50.124Z,1.20
2023-03-13T23:46:19.287Z,2.08
2023-03-13T23:48:47.170Z,2.58
2023-03-13T23:51:15.384Z,5.95
2023-03-13T23:53:44.366Z,2.53
2023-03-13T23:56:12.947Z,1.67
2023-03-13T23:58:42.661Z,0.82
